FW2134 Staten Island NY US current weather conditions

sailwx.info

Wind from 231 at 3 knots

Air temperature 11.1° C
Dewpoint 11.0° C

Last reported at 2019-Oct-17 03:00 UTC.
Time now 2019-Oct-17 04:09 UTC

Location: N 40°35' W 074°11'.
View on Google Maps.

See reports from other nearby stations

  
Tides and Currents Weather Stations Pressure Air Temp Water Temp Dewpoint Dewpoint Depression Visibility Wind Speed Wind Dir Waves Ship Positions
date/time (UTC)wind fromknots sea level pressurealtimeterstation pressurevisibilityair tempwater tempwave heightnotes
2019-Oct-17 03:00 231 3 11.1
2019-Oct-17 02:45 275 5 11.1
2019-Oct-17 02:30 315 5 13.3
2019-Oct-17 02:15 278 5 14.4
2019-Oct-17 02:00 178 1 15.0
2019-Oct-17 01:45 258 4 15.6
2019-Oct-17 01:30 151 16.1
2019-Oct-17 01:15 150 2 16.1
2019-Oct-17 01:00 150 2 16.1
2019-Oct-17 00:46 099 0 16.1
2019-Oct-17 00:30 100 1 16.1
2019-Oct-17 00:15 111 4 16.1
2019-Oct-17 00:00 106 4 16.1
2019-Oct-16 23:45 089 5 15.6
2019-Oct-16 23:30 116 4 15.6
2019-Oct-16 23:15 100 5 15.0
2019-Oct-16 23:00 083 3 15.6
2019-Oct-16 22:45 100 1 15.6
2019-Oct-16 22:30 103 1 15.0
2019-Oct-16 22:15 107 1 15.0
2019-Oct-16 22:00 121 2 15.6
2019-Oct-16 21:45 110 4 16.7
2019-Oct-16 21:30 099 2 16.1
2019-Oct-16 21:15 097 3 16.7
2019-Oct-16 21:01 086 2 16.7
2019-Oct-16 20:47 090 2 16.7
2019-Oct-16 20:32 106 4 16.7
2019-Oct-16 20:20 102 4 16.7
2019-Oct-16 20:02 127 3 16.7
2019-Oct-16 19:46 100 3 16.7
2019-Oct-16 19:32 107 2 16.7
2019-Oct-16 19:16 097 2 16.7
2019-Oct-16 19:01 113 1 16.7
2019-Oct-16 18:46 133 2 17.2
2019-Oct-16 18:31 126 3 17.2
2019-Oct-16 18:16 114 3 17.8
2019-Oct-16 18:01 120 4 17.8
2019-Oct-16 17:45 092 4 17.8
2019-Oct-16 17:31 093 3 17.8
2019-Oct-16 17:17 097 3 17.8
2019-Oct-16 17:01 102 3 17.8
2019-Oct-16 16:46 106 2 17.8
2019-Oct-16 16:31 104 2 17.8
2019-Oct-16 16:16 106 2 17.8
2019-Oct-16 16:01 114 3 17.8
2019-Oct-16 15:45 131 3 17.8
2019-Oct-16 15:30 113 2 17.8
2019-Oct-16 15:15 103 3 17.8
2019-Oct-16 15:00 097 3 17.2
2019-Oct-16 14:45 103 2 17.2
2019-Oct-16 14:30 107 2 17.2
2019-Oct-16 14:15 103 1 16.7
2019-Oct-16 13:46 104 1 16.7
2019-Oct-16 13:31 100 1 16.1
2019-Oct-16 13:16 116 1 16.1
2019-Oct-16 13:02 114 1 16.1
2019-Oct-16 12:46 121 1 15.6
2019-Oct-16 12:30 120 0 15.6
2019-Oct-16 12:15 109 1 15.0
2019-Oct-16 12:00 103 0 15.0
2019-Oct-16 11:46 106 0 15.0
2019-Oct-16 11:30 109 0 15.0
2019-Oct-16 11:15 107 0 14.4
2019-Oct-16 11:00 117 0 14.4
2019-Oct-16 10:45 123 14.4
2019-Oct-16 10:30 128 13.9
2019-Oct-16 10:17 128 13.9
2019-Oct-16 10:01 131 13.9
2019-Oct-16 09:47 135 0 13.3
2019-Oct-16 09:31 138 13.3
2019-Oct-16 09:17 138 13.3
2019-Oct-16 09:02 138 13.3
2019-Oct-16 08:46 138 12.8
2019-Oct-16 08:31 138 12.8
2019-Oct-16 08:17 138 12.2
2019-Oct-16 08:01 138 11.7
2019-Oct-16 07:46 138 10.6
2019-Oct-16 07:32 138 11.1
2019-Oct-16 07:17 138 11.1
2019-Oct-16 07:01 138 11.1
2019-Oct-16 06:46 138 10.6
2019-Oct-16 06:31 138 10.6
2019-Oct-16 06:17 138 10.6
2019-Oct-16 06:01 138 11.1
2019-Oct-16 05:46 138 11.1
2019-Oct-16 05:30 138 11.7
2019-Oct-16 05:16 138 11.7
2019-Oct-16 05:01 138 11.7
2019-Oct-16 04:45 138 11.7
2019-Oct-16 04:30 138 11.7
2019-Oct-16 04:15 138 11.7
2019-Oct-16 04:00 138 11.7
2019-Oct-16 03:45 138 11.7
2019-Oct-16 03:30 138 11.7
2019-Oct-16 03:15 138 11.7
2019-Oct-16 03:00 138 11.7
2019-Oct-16 02:46 138 11.7
2019-Oct-16 02:30 138 11.7
2019-Oct-16 02:15 138 11.7
2019-Oct-16 02:00 138 11.7
2019-Oct-16 01:45 138 11.7
2019-Oct-16 01:30 138 12.2
2019-Oct-16 01:15 138 12.2
2019-Oct-16 01:00 138 12.2
2019-Oct-16 00:45 138 12.2
2019-Oct-16 00:30 138 12.2
2019-Oct-16 00:15 138 12.8
2019-Oct-16 00:00 138 12.8
2019-Oct-15 23:45 140 0 12.8
2019-Oct-15 23:30 140 0 13.3
2019-Oct-15 23:15 137 13.3
2019-Oct-15 23:00 135 0 13.3
2019-Oct-15 22:45 131 13.9
2019-Oct-15 22:30 131 13.9
2019-Oct-15 22:15 131 14.4
2019-Oct-15 22:00 128 15.0
2019-Oct-15 21:45 140 0 16.1
2019-Oct-15 21:30 185 16.7
2019-Oct-15 21:15 202 16.7
2019-Oct-15 21:00 217 16.7
2019-Oct-15 20:45 209 16.7
2019-Oct-15 20:30 209 16.7
2019-Oct-15 20:15 207 16.7
2019-Oct-15 20:00 220 16.7
2019-Oct-15 19:48 206 16.7
2019-Oct-15 19:32 210 0 16.7
2019-Oct-15 19:16 255 16.1
2019-Oct-15 19:01 205 16.1
2019-Oct-15 18:46 154 16.1
2019-Oct-15 18:31 198 16.1
2019-Oct-15 18:16 210 0 16.1
2019-Oct-15 18:00 237 0 16.1
2019-Oct-15 17:45 239 0 16.1
2019-Oct-15 17:30 219 15.6
2019-Oct-15 17:15 039 15.6
2019-Oct-15 17:00 047 15.0
2019-Oct-15 16:45 047 0 15.0
2019-Oct-15 16:30 082 0 15.0
2019-Oct-15 16:15 198 14.4
2019-Oct-15 16:00 199 14.4
2019-Oct-15 15:45 192 13.9
2019-Oct-15 15:30 207 13.3
2019-Oct-15 15:16 207 13.3
2019-Oct-15 15:02 209 12.8
2019-Oct-15 14:46 209 12.2
2019-Oct-15 14:31 209 12.2
2019-Oct-15 14:16 229 11.7
2019-Oct-15 14:01 229 0 11.1
2019-Oct-15 13:46 240 10.6
2019-Oct-15 13:31 240 10.0
2019-Oct-15 13:16 248 10.0
2019-Oct-15 13:02 229 9.4
2019-Oct-15 12:46 237 8.9
2019-Oct-15 12:31 248 8.9
2019-Oct-15 12:16 248 8.9
2019-Oct-15 12:01 248 8.3
2019-Oct-15 11:47 248 8.3
2019-Oct-15 11:31 248 8.9
2019-Oct-15 11:16 248 8.9
2019-Oct-15 11:01 247 8.9
2019-Oct-15 10:45 247 8.9
2019-Oct-15 10:31 247 8.9
2019-Oct-15 10:16 247 8.9
2019-Oct-15 10:01 248 8.9
2019-Oct-15 09:46 248 8.9
2019-Oct-15 09:30 248 9.4
2019-Oct-15 09:16 248 9.4
2019-Oct-15 09:01 247 9.4
2019-Oct-15 08:46 248 10.0
2019-Oct-15 08:31 248 10.0
2019-Oct-15 08:15 247 10.0
2019-Oct-15 08:00 248 10.6
2019-Oct-15 07:45 248 10.6
2019-Oct-15 07:30 248 10.6
2019-Oct-15 07:15 248 11.1
2019-Oct-15 07:00 247 11.1
2019-Oct-15 06:45 248 11.7
2019-Oct-15 06:30 247 11.7
2019-Oct-15 06:15 247 11.7
2019-Oct-15 06:00 251 12.2
2019-Oct-15 05:45 251 12.2
2019-Oct-15 05:30 251 12.8
2019-Oct-15 05:15 251 12.8
2019-Oct-15 05:00 251 12.8
2019-Oct-15 04:45 251 12.8
2019-Oct-15 04:30 263 12.8
2019-Oct-15 04:15 263 12.8
2019-Oct-15 04:02 263 12.8